Monticello, Maine
46° 20' 20"N, 67° 53' 10"W, Elevation 575 ft.
Eastern Time

Hourly observations for the last 48 hours

Date

Time

Temperature (F) Humi-
dity
(%)
Wind
(mph)
Pressure Rain (in) Sun
(W/m2)
UV ET
(in)
Air Dew 6 Hour 1 Hr 3 Hr 6 Hr Day
Alt
(in)
Sea
Level
(mb)
Max Min
19 18:00 47.4 45.8 94 NW 3 G 5 29.63 1003.3 0.00 18 0.0 0.034
19 17:00 49.2 45.5 87 Calm 29.60 1002.3 0.00 30 0.0 0.033
19 16:00 53.8 48.8 83 WSW 0 G 3 29.60 1002.4 0.00 53 0.0 0.030
19 15:00 55.6 50.2 82 S 3 G 9 29.60 1002.3 0.00 209 2.2 0.026
19 14:00 57.3 50.8 57.3 43.2 79 SW 1 G 5 29.60 1002.4 0.00 552 5.6 0.018
19 13:00 52.8 49.0 87 S 2 G 4 29.61 1002.8 0.00 269 3.2 0.013
19 12:00 50.8 48.3 91 SSW 3 G 8 29.61 1002.7 0.00 246 3.1 0.008
19 11:00 47.7 46.6 96 S 4 G 10 29.59 1002.1 0.00 190 2.0 0.005
19 10:00 45.7 44.9 97 S 4 G 6 29.60 1002.3 0.00 134 1.3 0.003
19 09:00 44.9 44.4 98 S 5 G 11 29.59 1002.0 0.00 193 1.4 0.001
19 08:00 43.2 42.7 43.2 38.8 98 S 5 G 12 29.58 1001.9 0.00 53 0.0 0.000
19 07:00 42.9 42.4 98 S 6 G 12 29.56 1001.0 0.00 16 0.0 0.000
19 06:00 42.1 41.3 97 S 6 G 13 29.57 1001.4 0.00 0 0.0 0.000
19 05:00 40.9 40.1 97 SSE 9 G 16 29.57 1001.3 0.00 0 0.0 0.000
19 04:00 40.1 39.1 96 S 6 G 15 29.59 1002.1 0.00 0 0.0 0.000
19 03:00 39.3 38.3 96 SSE 8 G 15 29.62 1003.0 0.00 0 0.0 0.000
19 02:00 38.8 37.8 38.8 35.6 96 SSE 10 G 16 29.67 1004.8 0.00 0 0.0 0.000
19 01:00 37.6 36.6 96 SSE 8 G 15 29.71 1006.2 0.00 0 0.0 0.000
19 00:00 36.8 35.5 95 SSE 8 G 14 29.75 1007.6 0.01 0 0.0 0.078
18 23:00 35.8 33.7 92 SSE 8 G 15 29.82 1009.8 0.01 0 0.0 0.078
18 22:00 35.8 32.6 88 SSE 8 G 17 29.86 1011.2 0.01 0 0.0 0.077
18 21:00 36.9 32.2 83 SSE 9 G 16 29.91 1012.8 0.01 0 0.0 0.076
18 20:00 37.5 31.6 52.0 36.8 79 SSE 6 G 17 29.92 1013.4 0.01 0.01 0.01 0 0.0 0.075
18 19:00 36.9 32.8 85 SSE 7 G 17 29.96 1014.6 0.01 0 0.0 0.074
18 18:00 37.8 33.4 84 SSE 10 G 19 30.01 1016.3 0.01 0.01 16 0.0 0.072
18 17:00 45.1 28.1 51 S 14 G 29 30.02 1016.7 0.00 30 0.0 0.067
18 16:00 49.4 23.6 36 S 10 G 23 29.99 1015.6 0.00 51 0.0 0.061
18 15:00 51.6 24.1 34 S 9 G 22 30.02 1016.7 0.00 213 1.7 0.053
18 14:00 51.1 23.7 52.3 35.6 34 SSE 8 G 16 30.04 1017.4 0.00 202 1.8 0.044
18 13:00 51.4 22.5 32 SSE 8 G 18 30.07 1018.2 0.00 445 4.2 0.034
18 12:00 48.9 23.8 37 SSE 5 G 11 30.11 1019.5 0.00 313 2.8 0.027
18 11:00 47.0 25.7 43 SSE 7 G 13 30.13 1020.3 0.00 374 3.1 0.018
18 10:00 43.2 27.7 54 ESE 2 G 5 30.14 1020.8 0.00 543 3.6 0.010
18 09:00 38.8 26.1 60 ESE 1 G 4 30.16 1021.3 0.00 394 2.0 0.005
18 08:00 35.6 23.9 35.6 22.2 62 SSE 1 G 4 30.18 1022.1 0.00 237 0.9 0.001
18 07:00 27.2 22.7 83 Calm 30.18 1022.2 0.00 211 0.0 0.000
18 06:00 22.2 18.9 87 Calm 30.17 1021.6 0.00 19 0.0 0.000
18 05:00 23.6 19.8 85 Calm 30.14 1020.8 0.00 0 0.0 0.000
18 04:00 24.4 20.5 85 NNW 2 G 4 30.13 1020.5 0.00 0 0.0 0.000
18 03:00 25.6 21.4 84 NNW 0 G 3 30.13 1020.3 0.00 0 0.0 0.000
18 02:00 26.9 21.9 39.6 26.9 81 Calm 30.13 1020.5 0.00 0 0.0 0.000
18 01:00 29.1 22.5 76 NNW 0 G 1 30.13 1020.3 0.00 0 0.0 0.000
18 00:00 31.8 22.1 67 NNW 2 G 4 30.11 1019.7 0.00 0 0.0 0.162
17 23:00 30.9 23.9 75 Calm 30.11 1019.7 0.00 0 0.0 0.161
17 22:00 35.8 25.2 65 NNW 0 G 2 30.09 1019.1 0.00 0 0.0 0.160
17 21:00 37.5 24.1 58 NNW 0 G 2 30.08 1018.6 0.00 0 0.0 0.159
17 20:00 39.6 24.3 51.1 39.6 54 N 1 G 4 30.06 1017.9 0.00 0 0.0 0.158
17 19:00 44.5 22.3 41 N 1 G 9 30.04 1017.2 0.00 12 0.0 0.156
17 18:00 49.1 21.9 34 N 5 G 12 30.01 1016.5 0.00 132 0.0 0.149
17 17:00 51.1 19.9 29 NW 3 G 16 30.00 1015.8 0.00 330 1.0 0.138
17 16:00 49.9 20.5 31 NNW 6 G 18 29.98 1015.3 0.00 513 2.3 0.123
17 15:00 50.1 22.1 33 N 13 G 22 29.97 1015.0 0.00 671 3.8 0.106
17 14:00 48.2 21.8 48.8 38.0 35 N 12 G 19 29.96 1014.6 0.00 788 5.2 0.087
17 13:00 47.4 21.1 35 NNW 7 G 22 29.94 1013.9 0.00 860 6.2 0.068
17 12:00 45.7 23.3 41 N 7 G 20 29.93 1013.7 0.00 875 6.2 0.050
17 11:00 44.1 23.0 43 N 12 G 28 29.92 1013.3 0.00 828 5.4 0.034
17 10:00 42.9 24.6 48 NW 6 G 18 29.92 1013.2 0.00 726 4.0 0.021
17 09:00 39.9 26.3 58 N 7 G 13 29.91 1012.9 0.00 582 2.4 0.012
17 08:00 38.0 26.5 38.0 31.0 63 NNW 5 G 12 29.91 1012.9 0.00 404 1.1 0.007
17 07:00 34.0 26.6 74 NNW 4 G 10 29.90 1012.4 0.00 209 0.0 0.005
17 06:00 31.5 26.0 80 NNW 2 G 7 29.86 1011.2 0.00 12 0.0 0.005
17 05:00 32.2 26.7 80 NW 3 G 11 29.83 1010.3 0.00 0 0.0 0.004
17 04:00 32.2 27.0 81 NNW 2 G 16 29.80 1009.3 0.00 0 0.0 0.003
17 03:00 32.4 27.2 81 NW 5 G 12 29.78 1008.5 0.00 0 0.0 0.002
17 02:00 33.2 27.7 34.3 33.2 80 NW 6 G 16 29.75 1007.5 0.00 0 0.0 0.001
17 01:00 34.0 28.2 79 NNW 4 G 14 29.73 1006.9 0.00 0 0.0 0.000
17 00:00 34.1 28.3 79 NNW 5 G 18 29.71 1006.0 0.01 0 0.0 0.057
16 23:00 34.0 28.8 81 NNW 4 G 15 29.69 1005.5 0.01 0 0.0 0.056
16 22:00 33.8 28.9 82 NNW 6 G 15 29.67 1004.8 0.01 0 0.0 0.055
16 21:00 33.7 30.0 86 NNW 7 G 14 29.65 1004.2 0.01 0 0.0 0.055
16 20:00 33.4 30.2 39.5 33.1 88 N 8 G 15 29.62 1003.0 0.01 0 0.0 0.055
16 19:00 34.9 30.9 85 N 10 G 23 29.58 1001.8 0.01 12 0.0 0.054

Data generated by WxSolution Version 1.9.1.7, Build 2018.11.24.